Time;durP1;ratioP1;P1;durP2;ratioP2;P2;SDS_P1;SDS_P2;PMS_P1;PMS_P2;Temp;Humidity;BMP_temperature;BMP_pressure;BME280_temperature;BME280_humidity;BME280_pressure;Samples;Min_cycle;Max_cycle;Signal;HPM_P1;HPM_P2
2021/01/18 00:00:10;;;;;;;29.17;11.53;;;;;;;;;;2081638;28;20562;-60
2021/01/18 00:01:10;;;;;;;30.57;12.10;;;;;;;;;;2078946;28;20195;-62
2021/01/18 00:02:10;;;;;;;35.57;11.73;;;;;;;;;;2077458;28;20743;-62
2021/01/18 00:03:11;;;;;;;33.23;11.80;;;;;;;;;;2084169;28;20195;-60
2021/01/18 00:04:11;;;;;;;31.70;12.40;;;;;;;;;;2079625;28;20649;-60
2021/01/18 00:05:11;;;;;;;35.17;12.20;;;;;;;;;;2078502;28;20192;-60
2021/01/18 00:07:20;;;;;;;27.63;11.80;;;;;;;;;;2092917;28;20211;-62
2021/01/18 00:08:20;;;;;;;32.73;12.73;;;;;;;;;;2089241;28;20259;-62
2021/01/18 00:09:20;;;;;;;32.73;11.33;;;;;;;;;;2093665;28;20190;-61
2021/01/18 00:10:22;;;;;;;29.73;11.80;;;;;;;;;;2106926;28;20626;-58
2021/01/18 00:11:22;;;;;;;32.93;10.33;;;;;;;;;;2103604;28;20639;-60
2021/01/18 00:12:22;;;;;;;25.97;11.20;;;;;;;;;;2099669;28;20167;-61
2021/01/18 00:13:23;;;;;;;33.17;10.97;;;;;;;;;;2099230;28;20245;-61
2021/01/18 00:14:23;;;;;;;29.70;11.20;;;;;;;;;;2098994;28;20186;-55
2021/01/18 00:15:24;;;;;;;28.30;11.67;;;;;;;;;;2090257;28;20183;-62
2021/01/18 00:16:24;;;;;;;32.23;10.03;;;;;;;;;;2088386;28;20170;-57
2021/01/18 00:17:24;;;;;;;29.87;11.37;;;;;;;;;;2097709;28;20229;-60
2021/01/18 00:18:25;;;;;;;27.83;10.67;;;;;;;;;;2099670;28;20169;-60
2021/01/18 00:19:25;;;;;;;25.47;10.53;;;;;;;;;;2099088;28;20726;-60
2021/01/18 00:20:25;;;;;;;24.70;9.40;;;;;;;;;;2097302;28;20235;-62
2021/01/18 00:21:25;;;;;;;25.27;10.73;;;;;;;;;;2097569;28;20190;-61
2021/01/18 00:22:25;;;;;;;25.23;9.87;;;;;;;;;;2099195;28;20182;-60
2021/01/18 00:23:26;;;;;;;24.47;10.67;;;;;;;;;;2098774;28;20221;-59
2021/01/18 00:24:26;;;;;;;29.90;9.47;;;;;;;;;;2098731;28;20222;-61
2021/01/18 00:25:26;;;;;;;24.80;9.73;;;;;;;;;;2098447;28;20270;-61
2021/01/18 00:26:27;;;;;;;24.73;9.37;;;;;;;;;;2090681;28;20172;-62
2021/01/18 00:27:27;;;;;;;29.57;10.30;;;;;;;;;;2083070;28;20168;-62
2021/01/18 00:28:27;;;;;;;23.97;10.67;;;;;;;;;;2087827;28;20168;-62
2021/01/18 00:29:28;;;;;;;26.07;9.33;;;;;;;;;;2097981;28;20179;-62
2021/01/18 00:30:28;;;;;;;25.97;9.43;;;;;;;;;;2097184;28;20179;-62
2021/01/18 00:31:29;;;;;;;24.03;9.63;;;;;;;;;;2098242;28;20240;-63
2021/01/18 00:32:29;;;;;;;22.80;9.87;;;;;;;;;;2087864;28;20179;-63
2021/01/18 00:33:29;;;;;;;22.40;9.50;;;;;;;;;;2092096;28;20164;-60
2021/01/18 00:34:29;;;;;;;24.40;9.57;;;;;;;;;;2097326;28;20672;-61
2021/01/18 00:35:31;;;;;;;37.37;9.70;;;;;;;;;;2100872;28;20187;-61
2021/01/18 00:36:32;;;;;;;23.53;9.87;;;;;;;;;;2097317;28;20199;-58
2021/01/18 00:37:38;;;;;;;15.63;7.83;;;;;;;;;;2097765;28;20167;-60
2021/01/18 00:38:38;;;;;;;23.80;8.90;;;;;;;;;;2092183;28;20183;-58
2021/01/18 00:39:39;;;;;;;27.30;9.50;;;;;;;;;;2083960;28;20181;-60
2021/01/18 00:40:39;;;;;;;19.13;8.57;;;;;;;;;;2091818;28;20585;-63
2021/01/18 00:41:40;;;;;;;24.13;9.57;;;;;;;;;;2085480;28;20279;-62
2021/01/18 00:42:41;;;;;;;25.83;9.40;;;;;;;;;;2100928;28;20178;-62
2021/01/18 00:43:41;;;;;;;26.23;9.60;;;;;;;;;;2092578;28;20184;-61
2021/01/18 00:44:41;;;;;;;19.70;8.50;;;;;;;;;;2101165;28;20269;-62
2021/01/18 00:45:41;;;;;;;25.40;9.87;;;;;;;;;;2093793;28;20167;-62
2021/01/18 00:46:44;;;;;;;23.60;9.87;;;;;;;;;;2084841;28;20196;-57
2021/01/18 00:47:46;;;;;;;21.77;10.33;;;;;;;;;;2076726;28;20199;-60
2021/01/18 00:48:46;;;;;;;25.77;9.63;;;;;;;;;;2076610;28;20192;-62
2021/01/18 00:49:46;;;;;;;36.43;10.33;;;;;;;;;;2076637;28;20192;-62
2021/01/18 00:50:46;;;;;;;24.77;10.33;;;;;;;;;;2091508;28;20189;-62
2021/01/18 00:51:47;;;;;;;28.47;10.33;;;;;;;;;;2088918;28;20230;-61
2021/01/18 00:52:49;;;;;;;26.97;10.60;;;;;;;;;;2085120;28;20183;-61
2021/01/18 00:53:52;;;;;;;23.23;9.90;;;;;;;;;;2077845;28;20197;-61
2021/01/18 00:54:53;;;;;;;22.80;9.07;;;;;;;;;;2077757;28;20219;-57
2021/01/18 00:56:12;;;;;;;27.20;9.60;;;;;;;;;;2077516;28;20165;-61
2021/01/18 00:57:19;;;;;;;23.60;10.53;;;;;;;;;;2078481;28;20247;-61
2021/01/18 00:58:19;;;;;;;25.50;9.50;;;;;;;;;;2079257;28;20215;-60
2021/01/18 00:59:38;;;;;;;31.03;9.87;;;;;;;;;;2073630;28;20172;-60
2021/01/18 01:00:39;;;;;;;23.50;9.97;;;;;;;;;;2073311;28;20177;-62
2021/01/18 01:01:41;;;;;;;32.93;10.23;;;;;;;;;;2093862;28;20183;-61
2021/01/18 01:02:42;;;;;;;24.53;9.20;;;;;;;;;;2094006;28;20530;-61
2021/01/18 01:03:42;;;;;;;26.40;9.87;;;;;;;;;;2094534;28;20183;-61
2021/01/18 01:04:43;;;;;;;22.53;10.00;;;;;;;;;;2090722;28;20458;-62
2021/01/18 01:05:43;;;;;;;21.73;9.40;;;;;;;;;;2093326;28;20227;-62
2021/01/18 01:06:43;;;;;;;22.07;9.17;;;;;;;;;;2093417;28;20230;-61
2021/01/18 01:07:44;;;;;;;31.07;9.93;;;;;;;;;;2093023;28;20625;-62
2021/01/18 01:08:45;;;;;;;23.03;9.47;;;;;;;;;;2087208;28;20197;-60
2021/01/18 01:09:45;;;;;;;28.77;11.00;;;;;;;;;;2093078;28;20247;-62
2021/01/18 01:10:45;;;;;;;33.03;10.07;;;;;;;;;;2091515;28;20222;-60
2021/01/18 01:11:46;;;;;;;20.17;9.23;;;;;;;;;;2084423;28;20231;-60
2021/01/18 01:12:46;;;;;;;17.93;8.93;;;;;;;;;;2084830;28;20184;-62
2021/01/18 01:13:47;;;;;;;20.57;8.60;;;;;;;;;;2084739;28;20300;-60
2021/01/18 01:14:48;;;;;;;22.43;10.27;;;;;;;;;;2084476;28;20239;-60
2021/01/18 01:15:48;;;;;;;24.73;9.23;;;;;;;;;;2094430;28;20199;-58
2021/01/18 01:16:49;;;;;;;21.63;9.80;;;;;;;;;;2097780;28;20191;-61
2021/01/18 01:17:49;;;;;;;19.43;9.27;;;;;;;;;;2101482;28;20187;-60
2021/01/18 01:18:49;;;;;;;22.17;9.10;;;;;;;;;;2098736;28;20194;-59
2021/01/18 01:19:50;;;;;;;18.73;8.47;;;;;;;;;;2093590;28;20179;-60
2021/01/18 01:20:51;;;;;;;27.37;9.53;;;;;;;;;;2084080;28;20219;-56
2021/01/18 01:21:51;;;;;;;23.40;8.97;;;;;;;;;;2083907;28;20200;-60
2021/01/18 01:22:52;;;;;;;21.17;8.67;;;;;;;;;;2092598;28;20171;-59
2021/01/18 01:23:52;;;;;;;19.97;8.17;;;;;;;;;;2095782;28;20198;-58
2021/01/18 01:24:52;;;;;;;22.10;8.17;;;;;;;;;;2100747;28;20171;-62
2021/01/18 01:25:52;;;;;;;18.03;8.37;;;;;;;;;;2098567;28;20315;-59
2021/01/18 01:26:53;;;;;;;19.33;9.03;;;;;;;;;;2092411;28;20298;-62
2021/01/18 01:27:53;;;;;;;22.17;9.00;;;;;;;;;;2083080;28;20187;-60
2021/01/18 01:28:53;;;;;;;28.07;10.10;;;;;;;;;;2078330;28;20174;-60
2021/01/18 01:29:53;;;;;;;19.60;9.23;;;;;;;;;;2091920;28;20188;-58
2021/01/18 01:30:54;;;;;;;18.67;8.80;;;;;;;;;;2098338;28;20206;-59
2021/01/18 01:31:54;;;;;;;19.53;9.23;;;;;;;;;;2083434;28;20215;-61
2021/01/18 01:32:55;;;;;;;24.57;11.23;;;;;;;;;;2075655;28;20181;-62
2021/01/18 01:33:55;;;;;;;19.83;9.43;;;;;;;;;;2078509;28;20168;-60
2021/01/18 01:34:55;;;;;;;22.73;9.97;;;;;;;;;;2085584;28;20263;-58
2021/01/18 01:35:56;;;;;;;26.77;10.47;;;;;;;;;;2096024;28;20198;-60
2021/01/18 01:36:56;;;;;;;20.37;10.23;;;;;;;;;;2100553;28;20236;-59
2021/01/18 01:37:57;;;;;;;25.77;11.13;;;;;;;;;;2094022;28;20211;-60
2021/01/18 01:38:57;;;;;;;23.77;10.77;;;;;;;;;;2095338;28;20583;-61
2021/01/18 01:39:57;;;;;;;26.67;10.60;;;;;;;;;;2090612;28;20172;-61
2021/01/18 01:40:57;;;;;;;23.97;11.27;;;;;;;;;;2082676;28;20180;-61
2021/01/18 01:41:58;;;;;;;28.23;11.90;;;;;;;;;;2085310;28;20177;-61
2021/01/18 01:43:00;;;;;;;20.03;11.33;;;;;;;;;;2095476;28;20822;-60
2021/01/18 01:44:00;;;;;;;23.90;11.00;;;;;;;;;;2089083;28;20217;-61
2021/01/18 01:45:00;;;;;;;21.40;11.37;;;;;;;;;;2088389;28;20267;-60
2021/01/18 01:46:01;;;;;;;27.23;11.57;;;;;;;;;;2096791;28;20270;-61
2021/01/18 01:47:02;;;;;;;20.90;10.67;;;;;;;;;;2090039;28;20196;-62
2021/01/18 01:48:02;;;;;;;29.40;12.67;;;;;;;;;;2090159;28;20228;-60
2021/01/18 01:49:02;;;;;;;24.30;10.93;;;;;;;;;;2089566;28;20215;-61
2021/01/18 01:50:04;;;;;;;24.63;9.93;;;;;;;;;;2086896;28;20395;-62
2021/01/18 01:51:05;;;;;;;19.50;9.67;;;;;;;;;;2099952;28;20179;-60
2021/01/18 01:52:05;;;;;;;23.63;10.27;;;;;;;;;;2099140;28;20199;-62
2021/01/18 01:53:05;;;;;;;22.53;10.73;;;;;;;;;;2103926;28;20171;-61
2021/01/18 01:54:06;;;;;;;25.07;11.30;;;;;;;;;;2099349;28;20171;-62
2021/01/18 01:55:08;;;;;;;29.20;10.50;;;;;;;;;;2093881;28;20185;-62
2021/01/18 01:56:08;;;;;;;24.60;12.00;;;;;;;;;;2085030;28;20175;-64
2021/01/18 01:57:09;;;;;;;29.83;11.70;;;;;;;;;;2078479;28;20189;-60
2021/01/18 01:58:09;;;;;;;29.30;11.40;;;;;;;;;;2087870;28;20180;-59
2021/01/18 01:59:10;;;;;;;24.47;12.40;;;;;;;;;;2096482;28;20252;-61
2021/01/18 02:00:10;;;;;;;29.17;11.77;;;;;;;;;;2089371;28;20274;-61
2021/01/18 02:01:10;;;;;;;25.80;11.13;;;;;;;;;;2083373;28;20175;-60
2021/01/18 02:02:12;;;;;;;24.67;12.10;;;;;;;;;;2090980;28;20266;-60
2021/01/18 02:03:20;;;;;;;22.23;9.97;;;;;;;;;;2095803;28;20177;-61
2021/01/18 02:04:21;;;;;;;17.30;9.93;;;;;;;;;;2090755;28;20671;-60
2021/01/18 02:05:22;;;;;;;18.70;9.97;;;;;;;;;;2083586;28;20259;-62
2021/01/18 02:06:22;;;;;;;31.27;12.27;;;;;;;;;;2088818;28;20179;-61
2021/01/18 02:07:23;;;;;;;24.33;10.90;;;;;;;;;;2095097;28;20192;-61
2021/01/18 02:08:23;;;;;;;20.70;9.57;;;;;;;;;;2096663;28;20195;-62
2021/01/18 02:09:23;;;;;;;22.47;11.17;;;;;;;;;;2094507;28;20180;-60
2021/01/18 02:10:23;;;;;;;23.70;9.70;;;;;;;;;;2096428;28;20179;-60
2021/01/18 02:11:24;;;;;;;22.13;10.30;;;;;;;;;;2097060;28;20256;-61
2021/01/18 02:12:24;;;;;;;23.13;10.73;;;;;;;;;;2090591;28;20180;-60
2021/01/18 02:13:29;;;;;;;18.23;10.00;;;;;;;;;;2084009;28;20207;-61
2021/01/18 02:14:40;;;;;;;25.33;10.27;;;;;;;;;;2097796;28;20186;-60
2021/01/18 02:15:45;;;;;;;17.10;10.23;;;;;;;;;;2090745;28;20156;-60
2021/01/18 02:16:48;;;;;;;27.93;10.87;;;;;;;;;;2099101;28;20662;-62
2021/01/18 02:17:58;;;;;;;19.03;10.73;;;;;;;;;;2096267;28;20214;-60
2021/01/18 02:19:26;;;;;;;16.23;10.00;;;;;;;;;;2098716;28;20258;-61
2021/01/18 02:20:52;;;;;;;24.10;10.57;;;;;;;;;;2090104;28;20175;-61
2021/01/18 02:22:17;;;;;;;26.00;10.10;;;;;;;;;;2085902;28;20179;-61
2021/01/18 02:23:29;;;;;;;22.20;10.13;;;;;;;;;;2091171;28;20779;-61
2021/01/18 02:24:56;;;;;;;27.63;11.80;;;;;;;;;;2097509;28;20266;-61
2021/01/18 02:26:00;;;;;;;26.23;10.80;;;;;;;;;;2098714;28;20623;-58
2021/01/18 02:27:19;;;;;;;19.90;9.20;;;;;;;;;;2097570;28;20206;-59
2021/01/18 02:28:38;;;;;;;21.47;10.33;;;;;;;;;;2093730;28;20183;-58
2021/01/18 02:29:44;;;;;;;20.90;9.00;;;;;;;;;;2090992;28;20167;-59
2021/01/18 02:31:03;;;;;;;29.43;11.70;;;;;;;;;;2091235;28;20665;-61
2021/01/18 02:32:18;;;;;;;26.97;10.77;;;;;;;;;;2094958;28;20233;-58
2021/01/18 02:33:24;;;;;;;24.93;10.50;;;;;;;;;;2099100;28;20696;-60
2021/01/18 02:34:24;;;;;;;25.83;10.73;;;;;;;;;;2099738;28;20170;-59
2021/01/18 02:35:43;;;;;;;22.93;10.27;;;;;;;;;;2101762;28;20643;-61
2021/01/18 02:36:46;;;;;;;16.93;10.00;;;;;;;;;;2100633;28;20209;-59
2021/01/18 02:38:00;;;;;;;23.40;11.00;;;;;;;;;;2099201;28;20303;-59
2021/01/18 02:39:19;;;;;;;26.63;11.87;;;;;;;;;;2096075;28;20175;-59
2021/01/18 02:40:25;;;;;;;23.27;11.37;;;;;;;;;;2099537;28;20167;-60
2021/01/18 02:41:48;;;;;;;22.63;9.93;;;;;;;;;;2090146;28;20214;-58
2021/01/18 02:42:50;;;;;;;20.57;9.60;;;;;;;;;;2093174;28;20183;-61
2021/01/18 02:43:53;;;;;;;32.67;10.13;;;;;;;;;;2099088;28;20177;-60
2021/01/18 02:44:56;;;;;;;17.53;9.20;;;;;;;;;;2099489;28;20198;-61
2021/01/18 02:46:00;;;;;;;16.83;9.60;;;;;;;;;;2099029;28;20178;-59
2021/01/18 02:47:01;;;;;;;21.60;9.90;;;;;;;;;;2090318;28;20238;-59
2021/01/18 02:48:01;;;;;;;26.37;9.13;;;;;;;;;;2090259;28;20262;-61
2021/01/18 02:49:03;;;;;;;20.63;7.63;;;;;;;;;;2093097;28;20188;-60
2021/01/18 02:50:03;;;;;;;19.67;8.80;;;;;;;;;;2090553;28;20180;-62
2021/01/18 02:51:04;;;;;;;20.30;9.30;;;;;;;;;;2090625;28;20639;-58
2021/01/18 02:52:12;;;;;;;24.73;10.13;;;;;;;;;;2090612;28;20278;-61
2021/01/18 02:53:12;;;;;;;18.53;7.53;;;;;;;;;;2090675;28;20648;-61
2021/01/18 02:54:12;;;;;;;26.23;8.80;;;;;;;;;;2073467;28;20177;-60
2021/01/18 02:55:16;;;;;;;26.13;8.53;;;;;;;;;;2073748;28;20176;-60
2021/01/18 02:56:16;;;;;;;20.33;8.17;;;;;;;;;;2091332;28;20229;-58
2021/01/18 02:57:19;;;;;;;16.93;9.03;;;;;;;;;;2090470;28;20184;-60
2021/01/18 02:58:22;;;;;;;20.33;8.33;;;;;;;;;;2090970;28;20194;-61
2021/01/18 02:59:23;;;;;;;17.50;8.20;;;;;;;;;;2083303;28;20180;-62
2021/01/18 03:00:29;;;;;;;19.77;8.63;;;;;;;;;;2086976;28;20175;-58
2021/01/18 03:01:47;;;;;;;15.10;8.60;;;;;;;;;;2098113;28;20183;-60
2021/01/18 03:03:06;;;;;;;17.90;7.50;;;;;;;;;;2091448;28;20229;-62
2021/01/18 03:04:06;;;;;;;18.43;7.97;;;;;;;;;;2096982;28;20196;-60
2021/01/18 03:05:13;;;;;;;19.67;8.37;;;;;;;;;;2097898;28;20190;-59
2021/01/18 03:06:20;;;;;;;21.07;8.27;;;;;;;;;;2097788;28;20181;-59
2021/01/18 03:07:23;;;;;;;13.63;8.10;;;;;;;;;;2097436;28;20177;-59
2021/01/18 03:08:31;;;;;;;16.83;7.83;;;;;;;;;;2088460;28;20662;-59
2021/01/18 03:10:00;;;;;;;18.23;8.40;;;;;;;;;;2088432;28;20172;-57
2021/01/18 03:11:09;;;;;;;14.77;7.83;;;;;;;;;;2079504;28;20198;-59
2021/01/18 03:12:10;;;;;;;19.63;8.00;;;;;;;;;;2097863;28;20186;-56
2021/01/18 03:13:16;;;;;;;15.40;6.87;;;;;;;;;;2097486;28;20237;-59
2021/01/18 03:14:21;;;;;;;18.93;8.27;;;;;;;;;;2095051;28;20174;-56
2021/01/18 03:15:24;;;;;;;17.83;8.53;;;;;;;;;;2095925;28;20211;-57
2021/01/18 03:16:29;;;;;;;15.47;8.70;;;;;;;;;;2080380;28;20252;-60
2021/01/18 03:17:30;;;;;;;20.90;8.87;;;;;;;;;;2080912;28;20216;-59
2021/01/18 03:18:32;;;;;;;16.47;8.03;;;;;;;;;;2097250;28;20186;-55
2021/01/18 03:19:42;;;;;;;17.40;7.77;;;;;;;;;;2096500;28;20302;-57
2021/01/18 03:20:44;;;;;;;11.87;6.50;;;;;;;;;;2090483;28;20191;-57
2021/01/18 03:21:45;;;;;;;14.80;8.00;;;;;;;;;;2098021;28;20627;-59
2021/01/18 03:22:45;;;;;;;15.20;7.13;;;;;;;;;;2092561;28;20214;-60
2021/01/18 03:23:46;;;;;;;15.70;7.50;;;;;;;;;;2097691;28;20221;-55
2021/01/18 03:24:46;;;;;;;19.13;8.80;;;;;;;;;;2088943;28;20187;-56
2021/01/18 03:25:47;;;;;;;18.63;7.73;;;;;;;;;;2089005;28;20178;-59
2021/01/18 03:26:48;;;;;;;14.20;8.20;;;;;;;;;;2097638;28;20202;-59
2021/01/18 03:27:49;;;;;;;17.20;7.97;;;;;;;;;;2087921;28;20363;-58
2021/01/18 03:28:50;;;;;;;12.93;7.83;;;;;;;;;;2086893;28;20176;-57
2021/01/18 03:29:50;;;;;;;16.60;8.63;;;;;;;;;;2073943;28;20720;-60
2021/01/18 03:30:51;;;;;;;22.20;9.00;;;;;;;;;;2080454;28;20179;-57
2021/01/18 03:31:51;;;;;;;20.67;9.87;;;;;;;;;;2090689;28;20195;-60
2021/01/18 03:32:55;;;;;;;17.17;8.60;;;;;;;;;;2097994;28;20186;-60
2021/01/18 03:33:55;;;;;;;18.10;8.63;;;;;;;;;;2097520;28;20210;-61
2021/01/18 03:34:55;;;;;;;17.13;7.87;;;;;;;;;;2098269;28;20175;-60
2021/01/18 03:35:56;;;;;;;15.23;7.87;;;;;;;;;;2098059;28;20174;-59
2021/01/18 03:36:56;;;;;;;15.90;9.00;;;;;;;;;;2096708;28;20202;-57
2021/01/18 03:37:57;;;;;;;23.40;9.83;;;;;;;;;;2089568;28;20218;-53
2021/01/18 03:38:57;;;;;;;19.37;8.33;;;;;;;;;;2094101;28;20275;-58
2021/01/18 03:39:58;;;;;;;27.97;9.90;;;;;;;;;;2089368;28;20167;-57
2021/01/18 03:40:58;;;;;;;24.53;10.03;;;;;;;;;;2089483;28;20654;-56
2021/01/18 03:41:58;;;;;;;15.67;9.60;;;;;;;;;;2098444;28;20183;-59
2021/01/18 03:42:58;;;;;;;20.80;9.53;;;;;;;;;;2099122;28;20254;-61
2021/01/18 03:43:59;;;;;;;19.03;9.73;;;;;;;;;;2093218;28;20632;-58
2021/01/18 03:44:59;;;;;;;23.23;9.97;;;;;;;;;;2089383;28;20211;-56
2021/01/18 03:45:59;;;;;;;19.63;9.33;;;;;;;;;;2087416;28;20179;-59
2021/01/18 03:47:00;;;;;;;19.87;8.93;;;;;;;;;;2098530;28;21398;-55
2021/01/18 03:48:00;;;;;;;21.00;9.30;;;;;;;;;;2088355;28;20218;-60
2021/01/18 03:49:00;;;;;;;15.90;9.37;;;;;;;;;;2079189;28;20312;-59
2021/01/18 03:50:01;;;;;;;23.43;9.63;;;;;;;;;;2082076;28;20262;-57
2021/01/18 03:51:01;;;;;;;21.37;10.70;;;;;;;;;;2094121;28;20167;-60
2021/01/18 03:52:01;;;;;;;19.93;9.90;;;;;;;;;;2098787;28;20210;-60
2021/01/18 03:53:02;;;;;;;17.27;10.73;;;;;;;;;;2093795;28;20555;-60
2021/01/18 03:54:02;;;;;;;30.53;10.50;;;;;;;;;;2098168;28;20166;-60
2021/01/18 03:55:03;;;;;;;20.30;10.17;;;;;;;;;;2091495;28;20197;-61
2021/01/18 03:56:03;;;;;;;24.23;10.77;;;;;;;;;;2084621;28;20234;-60
2021/01/18 03:57:03;;;;;;;17.33;11.47;;;;;;;;;;2090558;28;20222;-56
2021/01/18 03:58:04;;;;;;;17.10;10.83;;;;;;;;;;2098327;28;20171;-59
2021/01/18 03:59:04;;;;;;;26.63;12.47;;;;;;;;;;2085640;28;20771;-58
2021/01/18 04:00:05;;;;;;;23.70;11.43;;;;;;;;;;2082128;28;20173;-60
2021/01/18 04:01:06;;;;;;;23.53;12.27;;;;;;;;;;2095125;28;20227;-60
2021/01/18 04:02:06;;;;;;;25.93;12.03;;;;;;;;;;2098939;28;20182;-55
2021/01/18 04:03:07;;;;;;;22.93;12.07;;;;;;;;;;2099180;28;20258;-58
2021/01/18 04:04:07;;;;;;;30.37;12.27;;;;;;;;;;2095804;28;20705;-59
2021/01/18 04:05:08;;;;;;;29.87;13.53;;;;;;;;;;2088082;28;20562;-58
2021/01/18 04:06:08;;;;;;;26.60;12.60;;;;;;;;;;2086432;28;20168;-56
2021/01/18 04:07:09;;;;;;;25.33;11.67;;;;;;;;;;2094400;28;20222;-59
2021/01/18 04:08:09;;;;;;;22.20;12.43;;;;;;;;;;2096105;28;20270;-59
2021/01/18 04:09:10;;;;;;;25.20;12.07;;;;;;;;;;2098428;28;20186;-57
2021/01/18 04:10:11;;;;;;;25.77;12.73;;;;;;;;;;2090751;28;20210;-62
2021/01/18 04:11:12;;;;;;;17.17;11.73;;;;;;;;;;2089353;28;20266;-60
2021/01/18 04:12:12;;;;;;;25.77;13.57;;;;;;;;;;2085412;28;20576;-58
2021/01/18 04:13:12;;;;;;;29.13;13.67;;;;;;;;;;2095450;28;20179;-56
2021/01/18 04:14:12;;;;;;;23.87;12.20;;;;;;;;;;2088121;28;20201;-60
2021/01/18 04:15:13;;;;;;;29.07;13.07;;;;;;;;;;2090344;28;20167;-58
2021/01/18 04:16:14;;;;;;;24.07;13.63;;;;;;;;;;2098935;28;20172;-57
2021/01/18 04:17:14;;;;;;;21.90;13.20;;;;;;;;;;2094322;28;20184;-56
2021/01/18 04:18:14;;;;;;;27.90;12.77;;;;;;;;;;2096021;28;20175;-59
2021/01/18 04:19:14;;;;;;;26.33;12.93;;;;;;;;;;2098695;28;20206;-59
2021/01/18 04:20:16;;;;;;;23.13;12.63;;;;;;;;;;2095189;28;20250;-59
2021/01/18 04:21:16;;;;;;;31.10;13.40;;;;;;;;;;2085573;28;20259;-59
2021/01/18 04:22:17;;;;;;;28.23;13.23;;;;;;;;;;2087321;28;20175;-58
2021/01/18 04:23:17;;;;;;;25.50;12.73;;;;;;;;;;2083105;28;20202;-59
2021/01/18 04:24:17;;;;;;;21.47;13.20;;;;;;;;;;2087058;28;20695;-59
2021/01/18 04:25:18;;;;;;;24.10;12.60;;;;;;;;;;2090441;28;20180;-60
2021/01/18 04:26:19;;;;;;;33.03;13.13;;;;;;;;;;2090117;28;20545;-59
2021/01/18 04:27:19;;;;;;;25.07;13.50;;;;;;;;;;2084148;28;20260;-56
2021/01/18 04:28:19;;;;;;;22.60;12.50;;;;;;;;;;2090777;28;20182;-56
2021/01/18 04:29:19;;;;;;;29.10;13.43;;;;;;;;;;2095028;28;20730;-58
2021/01/18 04:30:20;;;;;;;27.33;13.80;;;;;;;;;;2096626;28;20171;-58
2021/01/18 04:31:21;;;;;;;24.40;13.43;;;;;;;;;;2095439;28;20176;-55
2021/01/18 04:32:21;;;;;;;21.07;12.60;;;;;;;;;;2097124;28;20612;-53
2021/01/18 04:33:24;;;;;;;30.90;13.37;;;;;;;;;;2082993;28;20164;-59
2021/01/18 04:34:24;;;;;;;24.13;12.67;;;;;;;;;;2088459;28;20199;-56
2021/01/18 04:35:25;;;;;;;24.27;12.83;;;;;;;;;;2090964;28;20632;-59
2021/01/18 04:36:26;;;;;;;22.83;12.97;;;;;;;;;;2090892;28;20183;-60
2021/01/18 04:37:26;;;;;;;25.07;13.27;;;;;;;;;;2082135;28;20164;-59
2021/01/18 04:38:26;;;;;;;20.30;12.40;;;;;;;;;;2074935;28;20184;-59
2021/01/18 04:39:27;;;;;;;27.20;13.03;;;;;;;;;;2088890;28;20255;-58
2021/01/18 04:40:27;;;;;;;21.57;12.87;;;;;;;;;;2093489;28;20172;-57
2021/01/18 04:41:28;;;;;;;19.57;12.90;;;;;;;;;;2098578;28;20193;-58
2021/01/18 04:42:28;;;;;;;22.17;13.10;;;;;;;;;;2091107;28;20690;-61
2021/01/18 04:43:29;;;;;;;18.90;12.20;;;;;;;;;;2090041;28;20180;-59
2021/01/18 04:44:29;;;;;;;24.30;12.43;;;;;;;;;;2099645;28;20209;-58
2021/01/18 04:45:30;;;;;;;25.00;13.23;;;;;;;;;;2099510;28;20179;-54
2021/01/18 04:46:36;;;;;;;23.10;12.73;;;;;;;;;;2099786;28;20171;-59
2021/01/18 04:47:40;;;;;;;21.70;12.53;;;;;;;;;;2099006;28;20159;-59
2021/01/18 04:48:40;;;;;;;26.63;13.13;;;;;;;;;;2098918;28;20179;-59
2021/01/18 04:49:41;;;;;;;24.00;12.20;;;;;;;;;;2097838;28;20588;-59
2021/01/18 04:50:41;;;;;;;22.73;13.33;;;;;;;;;;2099222;28;20192;-60
2021/01/18 04:51:44;;;;;;;24.60;14.37;;;;;;;;;;2099527;28;20179;-60
2021/01/18 04:52:46;;;;;;;24.57;15.20;;;;;;;;;;2099833;28;20175;-58
2021/01/18 04:53:49;;;;;;;25.13;15.00;;;;;;;;;;2099464;28;20175;-59
2021/01/18 04:54:53;;;;;;;26.47;14.73;;;;;;;;;;2097779;28;20180;-59
2021/01/18 04:56:12;;;;;;;26.13;13.13;;;;;;;;;;2099283;28;20611;-59
2021/01/18 04:57:19;;;;;;;28.03;14.53;;;;;;;;;;2098849;28;20179;-59
2021/01/18 04:58:27;;;;;;;24.03;15.50;;;;;;;;;;2099543;28;20676;-58
2021/01/18 04:59:29;;;;;;;29.63;14.93;;;;;;;;;;2092860;28;20191;-59
2021/01/18 05:00:47;;;;;;;32.17;15.37;;;;;;;;;;2083721;28;20199;-58
2021/01/18 05:01:51;;;;;;;26.17;15.53;;;;;;;;;;2085521;28;20190;-59
2021/01/18 05:02:52;;;;;;;26.33;15.00;;;;;;;;;;2091224;28;20183;-59
2021/01/18 05:04:02;;;;;;;26.47;15.70;;;;;;;;;;2091516;28;20607;-59
2021/01/18 05:05:06;;;;;;;26.13;14.80;;;;;;;;;;2082650;28;20168;-59
2021/01/18 05:06:12;;;;;;;27.00;15.67;;;;;;;;;;2086667;28;20676;-58
2021/01/18 05:07:31;;;;;;;35.97;16.73;;;;;;;;;;2090743;28;20194;-57
2021/01/18 05:08:50;;;;;;;24.73;15.07;;;;;;;;;;2091351;28;20175;-59
2021/01/18 05:09:54;;;;;;;28.20;15.67;;;;;;;;;;2098928;28;20274;-56
2021/01/18 05:10:56;;;;;;;26.67;16.50;;;;;;;;;;2099368;28;20546;-55
2021/01/18 05:11:57;;;;;;;24.93;15.80;;;;;;;;;;2099489;28;20585;-55
2021/01/18 05:13:01;;;;;;;29.77;15.20;;;;;;;;;;2090422;28;20596;-55
2021/01/18 05:14:02;;;;;;;27.77;16.33;;;;;;;;;;2091272;28;20254;-60
2021/01/18 05:15:09;;;;;;;27.47;16.77;;;;;;;;;;2100180;28;20280;-59
2021/01/18 05:16:10;;;;;;;26.10;15.40;;;;;;;;;;2100440;28;20574;-58
2021/01/18 05:17:16;;;;;;;31.10;17.00;;;;;;;;;;2098918;28;20197;-55
2021/01/18 05:18:17;;;;;;;26.90;15.50;;;;;;;;;;2099248;28;20624;-57
2021/01/18 05:19:18;;;;;;;30.70;17.00;;;;;;;;;;2098818;28;20204;-57
2021/01/18 05:20:19;;;;;;;34.00;17.20;;;;;;;;;;2090771;28;20652;-57
2021/01/18 05:21:19;;;;;;;32.00;17.30;;;;;;;;;;2084604;28;20185;-58
2021/01/18 05:22:20;;;;;;;38.43;17.47;;;;;;;;;;2091252;28;20412;-56
2021/01/18 05:23:20;;;;;;;29.80;16.93;;;;;;;;;;2091112;28;20256;-57
2021/01/18 05:24:20;;;;;;;32.10;17.53;;;;;;;;;;2090784;28;20186;-57
2021/01/18 05:25:21;;;;;;;30.63;17.17;;;;;;;;;;2090901;28;20176;-57
2021/01/18 05:26:26;;;;;;;29.87;17.20;;;;;;;;;;2096912;28;20199;-57
2021/01/18 05:27:26;;;;;;;28.10;16.13;;;;;;;;;;2098482;28;20265;-61
2021/01/18 05:28:26;;;;;;;31.07;17.07;;;;;;;;;;2097272;28;20254;-58
2021/01/18 05:29:30;;;;;;;30.77;16.57;;;;;;;;;;2098528;28;20202;-59
2021/01/18 05:30:33;;;;;;;30.40;17.77;;;;;;;;;;2095850;28;20182;-58
2021/01/18 05:31:37;;;;;;;32.17;16.83;;;;;;;;;;2097381;28;20186;-60
2021/01/18 05:32:37;;;;;;;31.40;16.30;;;;;;;;;;2092003;28;20183;-59
2021/01/18 05:33:38;;;;;;;28.47;15.53;;;;;;;;;;2082348;28;20259;-60
2021/01/18 05:34:38;;;;;;;30.67;16.90;;;;;;;;;;2089386;28;20179;-59
2021/01/18 05:35:40;;;;;;;26.53;16.90;;;;;;;;;;2097168;28;20554;-58
2021/01/18 05:36:42;;;;;;;29.73;18.27;;;;;;;;;;2091706;28;20196;-60
2021/01/18 05:38:01;;;;;;;35.27;17.53;;;;;;;;;;2088110;28;20330;-60
2021/01/18 05:39:08;;;;;;;32.10;17.63;;;;;;;;;;2089517;28;20175;-59
2021/01/18 05:40:19;;;;;;;34.20;18.83;;;;;;;;;;2095948;28;20175;-59
2021/01/18 05:41:27;;;;;;;31.03;17.80;;;;;;;;;;2099244;28;20171;-59
2021/01/18 05:42:28;;;;;;;34.57;18.57;;;;;;;;;;2098288;28;20246;-58
2021/01/18 05:43:34;;;;;;;27.77;17.50;;;;;;;;;;2096752;28;20175;-60
2021/01/18 05:44:36;;;;;;;29.03;17.83;;;;;;;;;;2097890;28;20257;-57
2021/01/18 05:45:37;;;;;;;28.73;18.37;;;;;;;;;;2097017;28;20741;-60
2021/01/18 05:46:39;;;;;;;29.50;17.97;;;;;;;;;;2097699;28;20199;-56
2021/01/18 05:47:43;;;;;;;33.03;18.33;;;;;;;;;;2081004;28;20215;-54
2021/01/18 05:48:44;;;;;;;34.43;17.27;;;;;;;;;;2067471;28;20170;-56
2021/01/18 05:49:45;;;;;;;34.73;17.77;;;;;;;;;;2082936;28;20200;-59
2021/01/18 05:50:53;;;;;;;35.73;18.17;;;;;;;;;;2098642;28;20246;-59
2021/01/18 05:51:54;;;;;;;34.83;17.60;;;;;;;;;;2086584;28;20276;-57
2021/01/18 05:52:55;;;;;;;23.70;14.80;;;;;;;;;;2088197;28;20202;-59
2021/01/18 05:53:55;;;;;;;35.20;17.03;;;;;;;;;;2092059;28;20218;-56
2021/01/18 05:55:15;;;;;;;33.17;18.97;;;;;;;;;;2099224;28;20166;-59
2021/01/18 05:56:16;;;;;;;26.00;16.10;;;;;;;;;;2095221;28;20174;-56
2021/01/18 05:57:17;;;;;;;37.00;18.67;;;;;;;;;;2088382;28;20593;-56
2021/01/18 05:58:30;;;;;;;32.10;18.27;;;;;;;;;;2082127;28;20215;-58
2021/01/18 05:59:31;;;;;;;33.00;18.00;;;;;;;;;;2096676;28;20179;-60
2021/01/18 06:00:35;;;;;;;28.90;16.77;;;;;;;;;;2094876;28;20167;-60
2021/01/18 06:01:39;;;;;;;33.70;17.53;;;;;;;;;;2098689;28;20179;-59
2021/01/18 06:02:45;;;;;;;33.60;19.47;;;;;;;;;;2090482;28;20174;-61
2021/01/18 06:03:46;;;;;;;31.87;18.90;;;;;;;;;;2084046;28;20164;-59
2021/01/18 06:04:46;;;;;;;35.50;18.30;;;;;;;;;;2091854;28;20172;-59
2021/01/18 06:05:48;;;;;;;31.73;18.47;;;;;;;;;;2092286;28;20703;-58
2021/01/18 06:07:53;;;;;;;30.57;18.13;;;;;;;;;;2071550;28;20319;-62
2021/01/18 06:08:54;;;;;;;31.97;17.27;;;;;;;;;;2074321;28;20626;-63